sensor_id;sensor_type;location;lat;lon;timestamp;P1;durP1;ratioP1;P2;durP2;ratioP2
59790;SDS011;47431;51.640;5.554;2023-03-08T00:01:15;59.43;;;31.30;;
59790;SDS011;47431;51.640;5.554;2023-03-08T00:03:41;64.47;;;29.93;;
59790;SDS011;47431;51.640;5.554;2023-03-08T00:06:07;65.77;;;33.60;;
59790;SDS011;47431;51.640;5.554;2023-03-08T00:08:32;54.23;;;29.30;;
59790;SDS011;47431;51.640;5.554;2023-03-08T00:10:58;66.63;;;32.50;;
59790;SDS011;47431;51.640;5.554;2023-03-08T00:13:23;71.13;;;32.90;;
59790;SDS011;47431;51.640;5.554;2023-03-08T00:15:48;66.13;;;32.33;;
59790;SDS011;47431;51.640;5.554;2023-03-08T00:18:13;67.30;;;35.10;;
59790;SDS011;47431;51.640;5.554;2023-03-08T00:20:39;73.83;;;36.30;;
59790;SDS011;47431;51.640;5.554;2023-03-08T00:23:04;65.73;;;32.03;;
59790;SDS011;47431;51.640;5.554;2023-03-08T00:25:29;64.10;;;34.37;;
59790;SDS011;47431;51.640;5.554;2023-03-08T00:27:54;75.43;;;35.47;;
59790;SDS011;47431;51.640;5.554;2023-03-08T00:30:19;61.93;;;33.50;;
59790;SDS011;47431;51.640;5.554;2023-03-08T00:32:45;62.27;;;32.87;;
59790;SDS011;47431;51.640;5.554;2023-03-08T00:35:10;63.37;;;31.20;;
59790;SDS011;47431;51.640;5.554;2023-03-08T00:37:35;61.57;;;29.73;;
59790;SDS011;47431;51.640;5.554;2023-03-08T00:40:00;68.47;;;30.77;;
59790;SDS011;47431;51.640;5.554;2023-03-08T00:42:25;67.17;;;35.43;;
59790;SDS011;47431;51.640;5.554;2023-03-08T00:44:51;67.30;;;30.97;;
59790;SDS011;47431;51.640;5.554;2023-03-08T00:47:16;70.63;;;32.17;;
59790;SDS011;47431;51.640;5.554;2023-03-08T00:49:42;68.23;;;32.97;;
59790;SDS011;47431;51.640;5.554;2023-03-08T00:52:07;72.43;;;31.90;;
59790;SDS011;47431;51.640;5.554;2023-03-08T00:54:32;69.87;;;32.13;;
59790;SDS011;47431;51.640;5.554;2023-03-08T00:56:57;69.37;;;30.57;;
59790;SDS011;47431;51.640;5.554;2023-03-08T00:59:23;63.60;;;34.10;;
59790;SDS011;47431;51.640;5.554;2023-03-08T01:01:48;68.97;;;32.30;;
59790;SDS011;47431;51.640;5.554;2023-03-08T01:04:13;67.17;;;29.20;;
59790;SDS011;47431;51.640;5.554;2023-03-08T01:06:39;64.43;;;31.43;;
59790;SDS011;47431;51.640;5.554;2023-03-08T01:09:04;74.33;;;33.73;;
59790;SDS011;47431;51.640;5.554;2023-03-08T01:11:29;67.17;;;30.77;;
59790;SDS011;47431;51.640;5.554;2023-03-08T01:13:57;70.43;;;31.63;;
59790;SDS011;47431;51.640;5.554;2023-03-08T01:16:26;71.53;;;30.63;;
59790;SDS011;47431;51.640;5.554;2023-03-08T01:18:52;61.80;;;30.70;;
59790;SDS011;47431;51.640;5.554;2023-03-08T01:21:18;70.63;;;32.77;;
59790;SDS011;47431;51.640;5.554;2023-03-08T01:23:43;62.20;;;32.53;;
59790;SDS011;47431;51.640;5.554;2023-03-08T01:26:13;67.27;;;32.27;;
59790;SDS011;47431;51.640;5.554;2023-03-08T01:28:38;63.33;;;30.73;;
59790;SDS011;47431;51.640;5.554;2023-03-08T01:31:05;64.30;;;30.33;;
59790;SDS011;47431;51.640;5.554;2023-03-08T01:33:31;77.83;;;31.90;;
59790;SDS011;47431;51.640;5.554;2023-03-08T01:35:56;58.73;;;30.53;;
59790;SDS011;47431;51.640;5.554;2023-03-08T01:38:21;61.30;;;30.63;;
59790;SDS011;47431;51.640;5.554;2023-03-08T01:40:47;68.53;;;31.53;;
59790;SDS011;47431;51.640;5.554;2023-03-08T01:43:22;65.57;;;31.63;;
59790;SDS011;47431;51.640;5.554;2023-03-08T01:48:38;63.10;;;30.10;;
59790;SDS011;47431;51.640;5.554;2023-03-08T01:51:05;58.93;;;30.40;;
59790;SDS011;47431;51.640;5.554;2023-03-08T01:53:32;63.20;;;28.13;;
59790;SDS011;47431;51.640;5.554;2023-03-08T01:55:57;67.10;;;30.37;;
59790;SDS011;47431;51.640;5.554;2023-03-08T01:58:22;60.03;;;32.20;;
59790;SDS011;47431;51.640;5.554;2023-03-08T02:00:49;64.33;;;33.67;;
59790;SDS011;47431;51.640;5.554;2023-03-08T02:03:14;63.40;;;34.43;;
59790;SDS011;47431;51.640;5.554;2023-03-08T02:05:40;71.53;;;30.50;;
59790;SDS011;47431;51.640;5.554;2023-03-08T02:08:06;69.47;;;32.20;;
59790;SDS011;47431;51.640;5.554;2023-03-08T02:10:32;63.93;;;33.97;;
59790;SDS011;47431;51.640;5.554;2023-03-08T02:12:57;77.33;;;33.97;;
59790;SDS011;47431;51.640;5.554;2023-03-08T02:15:23;61.73;;;33.03;;
59790;SDS011;47431;51.640;5.554;2023-03-08T02:17:48;73.10;;;33.00;;
59790;SDS011;47431;51.640;5.554;2023-03-08T02:20:15;70.10;;;33.80;;
59790;SDS011;47431;51.640;5.554;2023-03-08T02:22:42;72.33;;;34.00;;
59790;SDS011;47431;51.640;5.554;2023-03-08T02:27:36;77.67;;;36.43;;
59790;SDS011;47431;51.640;5.554;2023-03-08T02:30:01;92.70;;;37.13;;
59790;SDS011;47431;51.640;5.554;2023-03-08T02:32:27;86.90;;;35.00;;
59790;SDS011;47431;51.640;5.554;2023-03-08T02:34:52;79.57;;;37.07;;
59790;SDS011;47431;51.640;5.554;2023-03-08T02:37:18;80.57;;;34.33;;
59790;SDS011;47431;51.640;5.554;2023-03-08T02:39:43;80.57;;;35.97;;
59790;SDS011;47431;51.640;5.554;2023-03-08T02:42:08;73.17;;;34.00;;
59790;SDS011;47431;51.640;5.554;2023-03-08T02:44:33;87.10;;;36.73;;
59790;SDS011;47431;51.640;5.554;2023-03-08T02:46:58;82.60;;;39.00;;
59790;SDS011;47431;51.640;5.554;2023-03-08T02:49:24;94.53;;;38.40;;
59790;SDS011;47431;51.640;5.554;2023-03-08T02:51:49;87.90;;;36.17;;
59790;SDS011;47431;51.640;5.554;2023-03-08T02:54:14;95.07;;;36.43;;
59790;SDS011;47431;51.640;5.554;2023-03-08T02:56:39;91.13;;;39.07;;
59790;SDS011;47431;51.640;5.554;2023-03-08T02:59:05;87.77;;;39.03;;
59790;SDS011;47431;51.640;5.554;2023-03-08T03:01:30;76.80;;;35.03;;
59790;SDS011;47431;51.640;5.554;2023-03-08T03:03:55;96.20;;;36.47;;
59790;SDS011;47431;51.640;5.554;2023-03-08T03:06:21;98.07;;;39.27;;
59790;SDS011;47431;51.640;5.554;2023-03-08T03:08:46;86.23;;;38.20;;
59790;SDS011;47431;51.640;5.554;2023-03-08T03:11:12;94.73;;;37.27;;
59790;SDS011;47431;51.640;5.554;2023-03-08T03:13:38;95.33;;;39.60;;
59790;SDS011;47431;51.640;5.554;2023-03-08T03:16:06;95.73;;;36.33;;
59790;SDS011;47431;51.640;5.554;2023-03-08T03:18:32;90.17;;;37.63;;
59790;SDS011;47431;51.640;5.554;2023-03-08T03:21:01;95.53;;;38.90;;
59790;SDS011;47431;51.640;5.554;2023-03-08T03:23:27;86.00;;;38.10;;
59790;SDS011;47431;51.640;5.554;2023-03-08T03:25:53;90.77;;;36.73;;
59790;SDS011;47431;51.640;5.554;2023-03-08T03:28:18;80.17;;;35.13;;
59790;SDS011;47431;51.640;5.554;2023-03-08T03:30:43;98.40;;;36.10;;
59790;SDS011;47431;51.640;5.554;2023-03-08T03:33:08;102.97;;;40.17;;
59790;SDS011;47431;51.640;5.554;2023-03-08T03:35:34;85.57;;;33.83;;
59790;SDS011;47431;51.640;5.554;2023-03-08T03:38:01;94.47;;;36.73;;
59790;SDS011;47431;51.640;5.554;2023-03-08T03:40:26;90.13;;;34.47;;
59790;SDS011;47431;51.640;5.554;2023-03-08T03:42:51;84.87;;;37.03;;
59790;SDS011;47431;51.640;5.554;2023-03-08T03:45:17;100.23;;;36.37;;
59790;SDS011;47431;51.640;5.554;2023-03-08T03:47:42;102.73;;;40.20;;
59790;SDS011;47431;51.640;5.554;2023-03-08T03:50:08;97.80;;;39.70;;
59790;SDS011;47431;51.640;5.554;2023-03-08T03:52:33;86.67;;;37.17;;
59790;SDS011;47431;51.640;5.554;2023-03-08T03:54:58;112.80;;;40.60;;
59790;SDS011;47431;51.640;5.554;2023-03-08T03:57:24;93.33;;;36.60;;
59790;SDS011;47431;51.640;5.554;2023-03-08T03:59:49;84.07;;;36.83;;
59790;SDS011;47431;51.640;5.554;2023-03-08T04:02:14;94.67;;;38.03;;
59790;SDS011;47431;51.640;5.554;2023-03-08T04:04:39;97.97;;;37.90;;
59790;SDS011;47431;51.640;5.554;2023-03-08T04:07:04;95.03;;;36.83;;
59790;SDS011;47431;51.640;5.554;2023-03-08T04:09:30;88.13;;;35.60;;
59790;SDS011;47431;51.640;5.554;2023-03-08T04:11:55;98.30;;;35.80;;
59790;SDS011;47431;51.640;5.554;2023-03-08T04:14:20;93.10;;;38.00;;
59790;SDS011;47431;51.640;5.554;2023-03-08T04:16:46;94.87;;;36.30;;
59790;SDS011;47431;51.640;5.554;2023-03-08T04:19:11;95.57;;;36.33;;
59790;SDS011;47431;51.640;5.554;2023-03-08T04:21:37;111.07;;;37.73;;
59790;SDS011;47431;51.640;5.554;2023-03-08T04:24:02;98.57;;;40.33;;
59790;SDS011;47431;51.640;5.554;2023-03-08T04:26:27;93.87;;;36.23;;
59790;SDS011;47431;51.640;5.554;2023-03-08T04:28:53;113.00;;;43.77;;
59790;SDS011;47431;51.640;5.554;2023-03-08T04:31:19;95.27;;;35.00;;
59790;SDS011;47431;51.640;5.554;2023-03-08T04:33:45;110.23;;;39.10;;
59790;SDS011;47431;51.640;5.554;2023-03-08T04:36:10;103.63;;;38.47;;
59790;SDS011;47431;51.640;5.554;2023-03-08T04:38:37;87.40;;;37.60;;
59790;SDS011;47431;51.640;5.554;2023-03-08T04:41:02;89.90;;;34.67;;
59790;SDS011;47431;51.640;5.554;2023-03-08T04:43:33;90.77;;;35.27;;
59790;SDS011;47431;51.640;5.554;2023-03-08T04:46:01;97.87;;;33.90;;
59790;SDS011;47431;51.640;5.554;2023-03-08T04:48:27;84.83;;;35.37;;
59790;SDS011;47431;51.640;5.554;2023-03-08T04:50:53;92.03;;;34.90;;
59790;SDS011;47431;51.640;5.554;2023-03-08T04:53:18;83.70;;;33.63;;
59790;SDS011;47431;51.640;5.554;2023-03-08T04:55:43;72.10;;;32.47;;
59790;SDS011;47431;51.640;5.554;2023-03-08T04:58:09;89.10;;;33.80;;
59790;SDS011;47431;51.640;5.554;2023-03-08T05:00:34;91.33;;;38.20;;
59790;SDS011;47431;51.640;5.554;2023-03-08T05:02:59;84.97;;;32.47;;
59790;SDS011;47431;51.640;5.554;2023-03-08T05:05:24;86.63;;;34.67;;
59790;SDS011;47431;51.640;5.554;2023-03-08T05:07:49;93.83;;;33.83;;
59790;SDS011;47431;51.640;5.554;2023-03-08T05:10:15;81.27;;;31.80;;
59790;SDS011;47431;51.640;5.554;2023-03-08T05:12:40;90.10;;;33.63;;
59790;SDS011;47431;51.640;5.554;2023-03-08T05:15:05;88.67;;;32.50;;
59790;SDS011;47431;51.640;5.554;2023-03-08T05:17:30;82.33;;;31.27;;
59790;SDS011;47431;51.640;5.554;2023-03-08T05:19:56;83.60;;;35.17;;
59790;SDS011;47431;51.640;5.554;2023-03-08T05:22:21;80.13;;;31.07;;
59790;SDS011;47431;51.640;5.554;2023-03-08T05:24:46;83.00;;;31.67;;
59790;SDS011;47431;51.640;5.554;2023-03-08T05:27:12;81.37;;;34.20;;
59790;SDS011;47431;51.640;5.554;2023-03-08T05:29:37;88.07;;;34.43;;
59790;SDS011;47431;51.640;5.554;2023-03-08T05:32:02;89.07;;;33.20;;
59790;SDS011;47431;51.640;5.554;2023-03-08T05:34:28;82.20;;;33.90;;
59790;SDS011;47431;51.640;5.554;2023-03-08T05:36:53;80.83;;;32.10;;
59790;SDS011;47431;51.640;5.554;2023-03-08T05:39:19;71.10;;;28.23;;
59790;SDS011;47431;51.640;5.554;2023-03-08T05:41:44;77.10;;;32.10;;
59790;SDS011;47431;51.640;5.554;2023-03-08T05:44:09;88.97;;;33.43;;
59790;SDS011;47431;51.640;5.554;2023-03-08T05:46:34;74.97;;;31.10;;
59790;SDS011;47431;51.640;5.554;2023-03-08T05:49:02;67.83;;;28.57;;
59790;SDS011;47431;51.640;5.554;2023-03-08T05:51:27;79.87;;;29.43;;
59790;SDS011;47431;51.640;5.554;2023-03-08T05:53:52;71.47;;;31.93;;
59790;SDS011;47431;51.640;5.554;2023-03-08T05:56:19;67.77;;;28.63;;
59790;SDS011;47431;51.640;5.554;2023-03-08T05:58:44;66.57;;;30.03;;
59790;SDS011;47431;51.640;5.554;2023-03-08T06:03:45;59.60;;;26.87;;
59790;SDS011;47431;51.640;5.554;2023-03-08T06:06:10;64.73;;;27.70;;
59790;SDS011;47431;51.640;5.554;2023-03-08T06:08:35;60.27;;;26.60;;
59790;SDS011;47431;51.640;5.554;2023-03-08T06:11:01;80.17;;;29.13;;
59790;SDS011;47431;51.640;5.554;2023-03-08T06:13:26;70.60;;;26.53;;
59790;SDS011;47431;51.640;5.554;2023-03-08T06:15:55;71.57;;;27.80;;
59790;SDS011;47431;51.640;5.554;2023-03-08T06:18:20;69.90;;;27.43;;
59790;SDS011;47431;51.640;5.554;2023-03-08T06:20:54;64.50;;;27.20;;
59790;SDS011;47431;51.640;5.554;2023-03-08T06:23:19;74.00;;;27.13;;
59790;SDS011;47431;51.640;5.554;2023-03-08T06:25:44;73.30;;;27.97;;
59790;SDS011;47431;51.640;5.554;2023-03-08T06:28:10;65.10;;;28.10;;
59790;SDS011;47431;51.640;5.554;2023-03-08T06:30:35;71.43;;;27.60;;
59790;SDS011;47431;51.640;5.554;2023-03-08T06:33:00;66.27;;;25.50;;
59790;SDS011;47431;51.640;5.554;2023-03-08T06:35:25;67.20;;;26.90;;
59790;SDS011;47431;51.640;5.554;2023-03-08T06:37:51;61.73;;;29.83;;
59790;SDS011;47431;51.640;5.554;2023-03-08T06:40:16;55.23;;;23.73;;
59790;SDS011;47431;51.640;5.554;2023-03-08T06:42:42;71.07;;;36.73;;
59790;SDS011;47431;51.640;5.554;2023-03-08T06:45:07;49.57;;;24.23;;
59790;SDS011;47431;51.640;5.554;2023-03-08T06:47:33;64.10;;;27.73;;
59790;SDS011;47431;51.640;5.554;2023-03-08T06:49:58;48.93;;;20.47;;
59790;SDS011;47431;51.640;5.554;2023-03-08T06:52:23;55.70;;;28.50;;
59790;SDS011;47431;51.640;5.554;2023-03-08T06:54:49;47.70;;;18.40;;
59790;SDS011;47431;51.640;5.554;2023-03-08T06:57:14;47.27;;;20.47;;
59790;SDS011;47431;51.640;5.554;2023-03-08T06:59:39;49.83;;;17.93;;
59790;SDS011;47431;51.640;5.554;2023-03-08T07:02:04;41.53;;;17.97;;
59790;SDS011;47431;51.640;5.554;2023-03-08T07:04:30;47.50;;;19.73;;
59790;SDS011;47431;51.640;5.554;2023-03-08T07:06:56;47.73;;;25.13;;
59790;SDS011;47431;51.640;5.554;2023-03-08T07:09:21;49.60;;;24.47;;
59790;SDS011;47431;51.640;5.554;2023-03-08T07:11:46;34.90;;;13.90;;
59790;SDS011;47431;51.640;5.554;2023-03-08T07:14:11;37.97;;;15.93;;
59790;SDS011;47431;51.640;5.554;2023-03-08T07:16:37;36.13;;;12.90;;
59790;SDS011;47431;51.640;5.554;2023-03-08T07:19:03;34.33;;;13.00;;
59790;SDS011;47431;51.640;5.554;2023-03-08T07:21:28;33.37;;;13.87;;
59790;SDS011;47431;51.640;5.554;2023-03-08T07:23:53;31.63;;;14.53;;
59790;SDS011;47431;51.640;5.554;2023-03-08T07:26:18;35.30;;;15.20;;
59790;SDS011;47431;51.640;5.554;2023-03-08T07:28:46;26.37;;;13.50;;
59790;SDS011;47431;51.640;5.554;2023-03-08T07:31:11;29.17;;;15.67;;
59790;SDS011;47431;51.640;5.554;2023-03-08T07:33:37;31.77;;;12.30;;
59790;SDS011;47431;51.640;5.554;2023-03-08T07:36:02;33.33;;;13.43;;
59790;SDS011;47431;51.640;5.554;2023-03-08T07:38:28;31.70;;;12.73;;
59790;SDS011;47431;51.640;5.554;2023-03-08T07:40:54;29.47;;;14.03;;
59790;SDS011;47431;51.640;5.554;2023-03-08T07:43:19;34.87;;;13.07;;
59790;SDS011;47431;51.640;5.554;2023-03-08T07:45:45;38.90;;;13.60;;
59790;SDS011;47431;51.640;5.554;2023-03-08T07:48:10;29.73;;;12.43;;
59790;SDS011;47431;51.640;5.554;2023-03-08T07:50:35;29.57;;;13.07;;
59790;SDS011;47431;51.640;5.554;2023-03-08T07:53:01;33.40;;;14.67;;
59790;SDS011;47431;51.640;5.554;2023-03-08T07:55:28;27.80;;;12.40;;
59790;SDS011;47431;51.640;5.554;2023-03-08T07:57:53;30.13;;;11.47;;
59790;SDS011;47431;51.640;5.554;2023-03-08T08:00:19;32.67;;;15.37;;
59790;SDS011;47431;51.640;5.554;2023-03-08T08:02:44;18.50;;;10.17;;
59790;SDS011;47431;51.640;5.554;2023-03-08T08:05:10;19.60;;;10.53;;
59790;SDS011;47431;51.640;5.554;2023-03-08T08:07:36;21.07;;;11.30;;
59790;SDS011;47431;51.640;5.554;2023-03-08T08:10:01;25.37;;;11.33;;
59790;SDS011;47431;51.640;5.554;2023-03-08T08:12:26;28.83;;;11.80;;
59790;SDS011;47431;51.640;5.554;2023-03-08T08:14:52;26.83;;;12.40;;
59790;SDS011;47431;51.640;5.554;2023-03-08T08:17:18;28.27;;;11.87;;
59790;SDS011;47431;51.640;5.554;2023-03-08T08:19:43;22.37;;;11.83;;
59790;SDS011;47431;51.640;5.554;2023-03-08T08:22:08;26.50;;;11.50;;
59790;SDS011;47431;51.640;5.554;2023-03-08T08:24:34;32.37;;;11.60;;
59790;SDS011;47431;51.640;5.554;2023-03-08T08:26:59;32.33;;;13.30;;
59790;SDS011;47431;51.640;5.554;2023-03-08T08:29:24;21.83;;;10.73;;
59790;SDS011;47431;51.640;5.554;2023-03-08T08:31:50;24.70;;;11.63;;
59790;SDS011;47431;51.640;5.554;2023-03-08T08:34:17;22.60;;;10.07;;
59790;SDS011;47431;51.640;5.554;2023-03-08T08:36:43;19.23;;;9.80;;
59790;SDS011;47431;51.640;5.554;2023-03-08T08:39:08;16.37;;;7.43;;
59790;SDS011;47431;51.640;5.554;2023-03-08T08:41:33;24.23;;;9.57;;
59790;SDS011;47431;51.640;5.554;2023-03-08T08:43:58;19.47;;;9.47;;
59790;SDS011;47431;51.640;5.554;2023-03-08T08:46:24;22.53;;;10.33;;
59790;SDS011;47431;51.640;5.554;2023-03-08T08:48:51;17.40;;;8.80;;
59790;SDS011;47431;51.640;5.554;2023-03-08T08:51:17;16.97;;;8.87;;
59790;SDS011;47431;51.640;5.554;2023-03-08T08:53:42;22.17;;;8.90;;
59790;SDS011;47431;51.640;5.554;2023-03-08T08:56:12;21.57;;;9.47;;
59790;SDS011;47431;51.640;5.554;2023-03-08T08:58:37;20.43;;;8.80;;
59790;SDS011;47431;51.640;5.554;2023-03-08T09:01:03;20.30;;;8.40;;
59790;SDS011;47431;51.640;5.554;2023-03-08T09:03:28;18.03;;;8.40;;
59790;SDS011;47431;51.640;5.554;2023-03-08T09:05:53;20.97;;;9.13;;
59790;SDS011;47431;51.640;5.554;2023-03-08T09:08:18;22.77;;;9.47;;
59790;SDS011;47431;51.640;5.554;2023-03-08T09:10:43;20.30;;;9.77;;
59790;SDS011;47431;51.640;5.554;2023-03-08T09:13:09;20.97;;;9.40;;
59790;SDS011;47431;51.640;5.554;2023-03-08T09:15:35;23.13;;;10.07;;
59790;SDS011;47431;51.640;5.554;2023-03-08T09:18:01;24.17;;;10.40;;
59790;SDS011;47431;51.640;5.554;2023-03-08T09:20:26;22.90;;;11.50;;
59790;SDS011;47431;51.640;5.554;2023-03-08T09:22:52;36.67;;;12.40;;
59790;SDS011;47431;51.640;5.554;2023-03-08T09:25:17;25.00;;;13.37;;
59790;SDS011;47431;51.640;5.554;2023-03-08T09:27:44;29.60;;;13.27;;
59790;SDS011;47431;51.640;5.554;2023-03-08T09:30:13;32.93;;;14.20;;
59790;SDS011;47431;51.640;5.554;2023-03-08T09:32:38;33.23;;;14.53;;
59790;SDS011;47431;51.640;5.554;2023-03-08T09:35:04;26.47;;;13.67;;
59790;SDS011;47431;51.640;5.554;2023-03-08T09:37:30;41.07;;;19.30;;
59790;SDS011;47431;51.640;5.554;2023-03-08T09:39:55;42.90;;;18.90;;
59790;SDS011;47431;51.640;5.554;2023-03-08T09:42:21;40.93;;;18.20;;
59790;SDS011;47431;51.640;5.554;2023-03-08T09:49:54;44.43;;;22.20;;
59790;SDS011;47431;51.640;5.554;2023-03-08T09:52:36;48.93;;;22.63;;
59790;SDS011;47431;51.640;5.554;2023-03-08T09:57:35;54.65;;;21.10;;
59790;SDS011;47431;51.640;5.554;2023-03-08T10:00:04;51.50;;;23.47;;
59790;SDS011;47431;51.640;5.554;2023-03-08T10:10:32;49.33;;;23.87;;
59790;SDS011;47431;51.640;5.554;2023-03-08T10:13:10;51.63;;;23.50;;
59790;SDS011;47431;51.640;5.554;2023-03-08T10:15:48;52.60;;;25.13;;
59790;SDS011;47431;51.640;5.554;2023-03-08T10:18:15;57.87;;;26.43;;
59790;SDS011;47431;51.640;5.554;2023-03-08T10:20:42;61.50;;;26.67;;
59790;SDS011;47431;51.640;5.554;2023-03-08T10:23:21;52.70;;;24.57;;
59790;SDS011;47431;51.640;5.554;2023-03-08T10:25:46;56.07;;;28.37;;
59790;SDS011;47431;51.640;5.554;2023-03-08T10:28:19;57.43;;;28.47;;
59790;SDS011;47431;51.640;5.554;2023-03-08T10:30:52;54.70;;;24.80;;
59790;SDS011;47431;51.640;5.554;2023-03-08T10:33:18;62.23;;;32.53;;
59790;SDS011;47431;51.640;5.554;2023-03-08T10:35:55;55.70;;;31.87;;
59790;SDS011;47431;51.640;5.554;2023-03-08T10:38:21;44.43;;;27.37;;
59790;SDS011;47431;51.640;5.554;2023-03-08T10:40:47;59.70;;;29.07;;
59790;SDS011;47431;51.640;5.554;2023-03-08T10:43:17;39.00;;;21.20;;
59790;SDS011;47431;51.640;5.554;2023-03-08T10:45:43;53.93;;;24.13;;
59790;SDS011;47431;51.640;5.554;2023-03-08T10:48:19;32.50;;;17.63;;
59790;SDS011;47431;51.640;5.554;2023-03-08T10:50:44;36.20;;;20.60;;
59790;SDS011;47431;51.640;5.554;2023-03-08T10:55:45;39.33;;;22.17;;
59790;SDS011;47431;51.640;5.554;2023-03-08T11:00:51;30.80;;;16.90;;
59790;SDS011;47431;51.640;5.554;2023-03-08T11:03:17;29.80;;;17.57;;
59790;SDS011;47431;51.640;5.554;2023-03-08T11:06:03;31.03;;;16.40;;
59790;SDS011;47431;51.640;5.554;2023-03-08T11:08:38;30.00;;;16.70;;
59790;SDS011;47431;51.640;5.554;2023-03-08T11:11:11;25.80;;;15.90;;
59790;SDS011;47431;51.640;5.554;2023-03-08T11:13:38;27.70;;;16.17;;
59790;SDS011;47431;51.640;5.554;2023-03-08T11:18:51;20.73;;;14.43;;
59790;SDS011;47431;51.640;5.554;2023-03-08T11:29:04;24.67;;;15.03;;
59790;SDS011;47431;51.640;5.554;2023-03-08T11:31:46;24.27;;;14.80;;
59790;SDS011;47431;51.640;5.554;2023-03-08T11:36:57;25.23;;;14.87;;
59790;SDS011;47431;51.640;5.554;2023-03-08T11:44:30;26.03;;;16.23;;
59790;SDS011;47431;51.640;5.554;2023-03-08T11:49:40;27.33;;;14.37;;
59790;SDS011;47431;51.640;5.554;2023-03-08T11:57:20;20.97;;;13.27;;
59790;SDS011;47431;51.640;5.554;2023-03-08T11:59:51;31.03;;;17.97;;
59790;SDS011;47431;51.640;5.554;2023-03-08T12:02:22;24.93;;;13.37;;
59790;SDS011;47431;51.640;5.554;2023-03-08T12:07:27;23.27;;;15.37;;
59790;SDS011;47431;51.640;5.554;2023-03-08T12:10:01;21.77;;;14.37;;
59790;SDS011;47431;51.640;5.554;2023-03-08T12:12:29;22.35;;;14.05;;
59790;SDS011;47431;51.640;5.554;2023-03-08T12:15:00;22.93;;;15.03;;
59790;SDS011;47431;51.640;5.554;2023-03-08T12:17:31;21.23;;;14.40;;
59790;SDS011;47431;51.640;5.554;2023-03-08T12:19:59;23.10;;;14.17;;
59790;SDS011;47431;51.640;5.554;2023-03-08T12:22:26;21.67;;;13.17;;
59790;SDS011;47431;51.640;5.554;2023-03-08T12:27:41;21.33;;;13.43;;
59790;SDS011;47431;51.640;5.554;2023-03-08T12:32:41;20.90;;;11.93;;
59790;SDS011;47431;51.640;5.554;2023-03-08T12:40:37;18.00;;;10.55;;
59790;SDS011;47431;51.640;5.554;2023-03-08T12:45:28;18.93;;;11.67;;
59790;SDS011;47431;51.640;5.554;2023-03-08T12:50:20;21.98;;;11.80;;
59790;SDS011;47431;51.640;5.554;2023-03-08T12:52:47;18.67;;;11.50;;
59790;SDS011;47431;51.640;5.554;2023-03-08T12:55:25;17.77;;;9.80;;
59790;SDS011;47431;51.640;5.554;2023-03-08T12:57:55;17.52;;;10.63;;
59790;SDS011;47431;51.640;5.554;2023-03-08T13:03:00;17.88;;;11.35;;
59790;SDS011;47431;51.640;5.554;2023-03-08T13:10:25;19.02;;;13.05;;
59790;SDS011;47431;51.640;5.554;2023-03-08T13:15:35;17.30;;;11.32;;
59790;SDS011;47431;51.640;5.554;2023-03-08T13:18:02;17.73;;;10.07;;
59790;SDS011;47431;51.640;5.554;2023-03-08T13:28:13;19.83;;;11.60;;
59790;SDS011;47431;51.640;5.554;2023-03-08T13:33:07;16.52;;;10.45;;
59790;SDS011;47431;51.640;5.554;2023-03-08T13:35:33;19.17;;;12.18;;
59790;SDS011;47431;51.640;5.554;2023-03-08T13:37:58;15.90;;;10.80;;
59790;SDS011;47431;51.640;5.554;2023-03-08T13:40:24;16.27;;;10.63;;
59790;SDS011;47431;51.640;5.554;2023-03-08T13:42:57;18.80;;;11.07;;
59790;SDS011;47431;51.640;5.554;2023-03-08T13:45:23;16.73;;;10.57;;
59790;SDS011;47431;51.640;5.554;2023-03-08T13:47:48;19.05;;;11.48;;
59790;SDS011;47431;51.640;5.554;2023-03-08T13:50:26;18.80;;;11.38;;
59790;SDS011;47431;51.640;5.554;2023-03-08T13:52:53;16.80;;;10.60;;
59790;SDS011;47431;51.640;5.554;2023-03-08T13:55:20;16.63;;;11.70;;
59790;SDS011;47431;51.640;5.554;2023-03-08T13:57:49;20.30;;;11.85;;
59790;SDS011;47431;51.640;5.554;2023-03-08T14:00:27;18.55;;;11.25;;
59790;SDS011;47431;51.640;5.554;2023-03-08T14:02:53;18.73;;;12.25;;
59790;SDS011;47431;51.640;5.554;2023-03-08T14:05:20;16.95;;;11.93;;
59790;SDS011;47431;51.640;5.554;2023-03-08T14:10:21;17.58;;;11.10;;
59790;SDS011;47431;51.640;5.554;2023-03-08T14:12:51;17.83;;;10.75;;
59790;SDS011;47431;51.640;5.554;2023-03-08T14:15:16;16.23;;;9.73;;
59790;SDS011;47431;51.640;5.554;2023-03-08T14:17:42;17.88;;;11.32;;
59790;SDS011;47431;51.640;5.554;2023-03-08T14:20:15;16.60;;;9.38;;
59790;SDS011;47431;51.640;5.554;2023-03-08T14:22:44;15.80;;;9.98;;
59790;SDS011;47431;51.640;5.554;2023-03-08T14:25:23;15.73;;;10.23;;
59790;SDS011;47431;51.640;5.554;2023-03-08T14:27:49;18.38;;;10.90;;
59790;SDS011;47431;51.640;5.554;2023-03-08T14:30:19;12.40;;;9.32;;
59790;SDS011;47431;51.640;5.554;2023-03-08T14:33:46;18.00;;;9.45;;
59790;SDS011;47431;51.640;5.554;2023-03-08T14:35:42;18.88;;;10.52;;
59790;SDS011;47431;51.640;5.554;2023-03-08T14:38:16;11.27;;;7.80;;
59790;SDS011;47431;51.640;5.554;2023-03-08T14:40:45;15.52;;;9.80;;
59790;SDS011;47431;51.640;5.554;2023-03-08T14:43:14;16.50;;;10.80;;
59790;SDS011;47431;51.640;5.554;2023-03-08T14:45:49;16.15;;;9.65;;
59790;SDS011;47431;51.640;5.554;2023-03-08T14:50:58;16.80;;;10.50;;
59790;SDS011;47431;51.640;5.554;2023-03-08T14:53:25;15.77;;;10.43;;
59790;SDS011;47431;51.640;5.554;2023-03-08T14:55:50;15.77;;;10.32;;
59790;SDS011;47431;51.640;5.554;2023-03-08T14:58:16;15.23;;;9.50;;
59790;SDS011;47431;51.640;5.554;2023-03-08T15:00:48;18.08;;;11.32;;
59790;SDS011;47431;51.640;5.554;2023-03-08T15:03:14;14.57;;;9.48;;
59790;SDS011;47431;51.640;5.554;2023-03-08T15:05:39;18.25;;;9.55;;
59790;SDS011;47431;51.640;5.554;2023-03-08T15:08:04;17.80;;;11.52;;
59790;SDS011;47431;51.640;5.554;2023-03-08T15:10:34;16.00;;;10.10;;
59790;SDS011;47431;51.640;5.554;2023-03-08T15:13:01;17.83;;;10.60;;
59790;SDS011;47431;51.640;5.554;2023-03-08T15:15:26;15.02;;;10.13;;
59790;SDS011;47431;51.640;5.554;2023-03-08T15:17:51;17.50;;;10.27;;
59790;SDS011;47431;51.640;5.554;2023-03-08T15:20:17;16.67;;;10.45;;
59790;SDS011;47431;51.640;5.554;2023-03-08T15:22:44;16.70;;;8.27;;
59790;SDS011;47431;51.640;5.554;2023-03-08T15:25:18;20.42;;;10.77;;
59790;SDS011;47431;51.640;5.554;2023-03-08T15:27:45;17.30;;;11.43;;
59790;SDS011;47431;51.640;5.554;2023-03-08T15:30:14;19.23;;;10.73;;
59790;SDS011;47431;51.640;5.554;2023-03-08T15:32:39;17.60;;;10.55;;
59790;SDS011;47431;51.640;5.554;2023-03-08T15:35:05;16.55;;;9.90;;
59790;SDS011;47431;51.640;5.554;2023-03-08T15:37:31;15.40;;;10.07;;
59790;SDS011;47431;51.640;5.554;2023-03-08T15:39:56;13.73;;;10.10;;
59790;SDS011;47431;51.640;5.554;2023-03-08T15:42:21;19.53;;;11.67;;
59790;SDS011;47431;51.640;5.554;2023-03-08T15:44:46;17.27;;;10.50;;
59790;SDS011;47431;51.640;5.554;2023-03-08T15:47:12;14.73;;;10.07;;
59790;SDS011;47431;51.640;5.554;2023-03-08T15:49:37;15.80;;;9.80;;
59790;SDS011;47431;51.640;5.554;2023-03-08T15:52:02;15.20;;;9.63;;
59790;SDS011;47431;51.640;5.554;2023-03-08T15:54:28;44.63;;;15.25;;
59790;SDS011;47431;51.640;5.554;2023-03-08T15:56:55;16.90;;;10.50;;
59790;SDS011;47431;51.640;5.554;2023-03-08T15:59:22;18.70;;;10.80;;